createdAt,value
2023-02-02T00:01:34.649Z,1.64
2023-02-02T00:04:36.879Z,1.67
2023-02-02T00:07:38.745Z,1.73
2023-02-02T00:10:40.590Z,1.78
2023-02-02T00:13:44.479Z,1.78
2023-02-02T00:16:47.801Z,1.66
2023-02-02T00:19:49.673Z,1.65
2023-02-02T00:22:51.468Z,1.66
2023-02-02T00:25:53.372Z,1.65
2023-02-02T00:28:56.905Z,1.66
2023-02-02T00:31:58.716Z,1.64
2023-02-02T00:35:00.600Z,1.63
2023-02-02T00:38:02.551Z,1.61
2023-02-02T00:41:04.763Z,1.63
2023-02-02T00:44:08.238Z,1.55
2023-02-02T00:47:10.277Z,1.48
2023-02-02T00:50:14.411Z,1.43
2023-02-02T00:53:16.353Z,1.42
2023-02-02T00:56:18.157Z,1.42
2023-02-02T00:59:21.527Z,1.33
2023-02-02T01:02:23.686Z,1.41
2023-02-02T01:05:25.921Z,1.47
2023-02-02T01:08:28.246Z,1.42
2023-02-02T01:11:30.130Z,1.50
2023-02-02T01:14:33.652Z,1.49
2023-02-02T01:17:36.221Z,1.54
2023-02-02T01:20:38.148Z,1.61
2023-02-02T01:23:40.404Z,1.60
2023-02-02T01:26:42.640Z,1.60
2023-02-02T01:29:46.117Z,1.67
2023-02-02T01:32:48.031Z,1.70
2023-02-02T01:35:52.886Z,1.69
2023-02-02T01:38:55.351Z,1.70
2023-02-02T01:41:57.288Z,1.72
2023-02-02T01:45:24.327Z,1.71
2023-02-02T01:48:28.488Z,1.76
2023-02-02T01:51:39.124Z,1.74
2023-02-02T01:54:47.386Z,1.78
2023-02-02T01:57:54.197Z,1.75
2023-02-02T02:00:57.884Z,1.76
2023-02-02T02:04:00.219Z,1.80
2023-02-02T02:07:04.806Z,1.73
2023-02-02T02:10:08.016Z,1.78
2023-02-02T02:13:11.194Z,1.80
2023-02-02T02:16:23.085Z,1.75
2023-02-02T02:19:59.449Z,1.76
2023-02-02T02:23:44.854Z,1.75
2023-02-02T02:27:27.895Z,1.80
2023-02-02T02:30:45.602Z,1.74
2023-02-02T02:33:57.583Z,1.70
2023-02-02T02:37:08.885Z,1.65
2023-02-02T02:40:20.509Z,1.62
2023-02-02T02:43:27.640Z,1.49
2023-02-02T02:46:29.901Z,1.45
2023-02-02T02:49:33.613Z,1.31
2023-02-02T02:52:37.105Z,1.33
2023-02-02T02:55:46.978Z,1.27
2023-02-02T02:58:55.436Z,1.21
2023-02-02T03:02:07.666Z,1.18
2023-02-02T03:05:22.530Z,1.20
2023-02-02T03:08:29.576Z,1.18
2023-02-02T03:11:31.549Z,1.26
2023-02-02T03:14:35.327Z,1.29
2023-02-02T03:17:37.234Z,1.25
2023-02-02T03:20:43.022Z,1.25
2023-02-02T03:23:44.849Z,1.15
2023-02-02T03:26:46.873Z,1.20
2023-02-02T03:29:49.165Z,1.22
2023-02-02T03:32:52.696Z,1.22
2023-02-02T03:35:55.988Z,1.26
2023-02-02T03:38:57.865Z,1.28
2023-02-02T03:41:59.784Z,1.28
2023-02-02T03:45:02.074Z,1.26
2023-02-02T03:48:05.065Z,1.30
2023-02-02T03:51:10.292Z,1.29
2023-02-02T03:54:12.449Z,1.25
2023-02-02T03:57:14.616Z,1.29
2023-02-02T04:00:17.270Z,1.29
2023-02-02T04:03:20.207Z,1.27
2023-02-02T04:06:24.453Z,1.28
2023-02-02T04:09:26.270Z,1.33
2023-02-02T04:12:28.453Z,1.33
2023-02-02T04:15:30.679Z,1.40
2023-02-02T04:18:32.869Z,1.44
2023-02-02T04:21:36.281Z,1.35
2023-02-02T04:24:38.587Z,1.25
2023-02-02T04:27:40.816Z,1.33
2023-02-02T04:30:42.687Z,1.33
2023-02-02T04:33:44.517Z,1.15
2023-02-02T04:36:48.177Z,0.87
2023-02-02T04:39:50.056Z,0.61
2023-02-02T04:42:51.976Z,0.50
2023-02-02T04:45:57.399Z,0.12
2023-02-02T04:48:59.376Z,0.12
2023-02-02T04:52:03.095Z,0.13
2023-02-02T04:55:05.481Z,0.05
2023-02-02T04:58:07.376Z,-0.01
2023-02-02T05:01:11.202Z,-0.04
2023-02-02T05:04:13.131Z,-0.01
2023-02-02T05:07:16.810Z,-0.03
2023-02-02T05:10:19.528Z,0.03
2023-02-02T05:13:21.792Z,0.00
2023-02-02T05:16:27.030Z,-0.07
2023-02-02T05:19:30.484Z,-0.02
2023-02-02T05:22:34.038Z,-0.14
2023-02-02T05:25:36.342Z,-0.14
2023-02-02T05:28:38.482Z,0.01
2023-02-02T05:31:40.376Z,-0.05
2023-02-02T05:34:42.382Z,-0.01
2023-02-02T05:37:46.229Z,-0.12
2023-02-02T05:40:49.295Z,-0.14
2023-02-02T05:43:51.157Z,-0.05
2023-02-02T05:46:53.429Z,-0.10
2023-02-02T05:49:55.367Z,-0.18
2023-02-02T05:53:00.127Z,-0.16
2023-02-02T05:56:02.164Z,-0.10
2023-02-02T05:59:04.009Z,-0.05
2023-02-02T06:02:06.550Z,-0.07
2023-02-02T06:05:09.338Z,-0.12
2023-02-02T06:08:12.973Z,-0.10
2023-02-02T06:11:17.801Z,-0.09
2023-02-02T06:14:19.935Z,-0.06
2023-02-02T06:17:21.842Z,-0.10
2023-02-02T06:20:24.108Z,-0.04
2023-02-02T06:23:28.030Z,-0.05
2023-02-02T06:26:30.106Z,-0.01
2023-02-02T06:29:31.941Z,0.03
2023-02-02T06:32:34.483Z,-0.04
2023-02-02T06:35:36.841Z,-0.03
2023-02-02T06:38:40.037Z,-0.02
2023-02-02T06:41:41.865Z,-0.11
2023-02-02T06:44:44.064Z,-0.14
2023-02-02T06:47:46.329Z,-0.17
2023-02-02T06:50:48.559Z,-0.19
2023-02-02T06:53:51.802Z,-0.28
2023-02-02T06:56:55.817Z,-0.25
2023-02-02T06:59:57.721Z,-0.29
2023-02-02T07:03:00.804Z,-0.29
2023-02-02T07:06:12.493Z,-0.34
2023-02-02T07:09:15.889Z,-0.28
2023-02-02T07:12:18.171Z,-0.27
2023-02-02T07:15:20.003Z,-0.30
2023-02-02T07:18:21.800Z,-0.26
2023-02-02T07:21:25.531Z,-0.20
2023-02-02T07:24:28.763Z,-0.18
2023-02-02T07:27:33.169Z,-0.19
2023-02-02T07:30:35.101Z,-0.19
2023-02-02T07:33:38.367Z,-0.14
2023-02-02T07:36:40.268Z,-0.24
2023-02-02T07:39:43.525Z,-0.18
2023-02-02T07:42:46.550Z,-0.22
2023-02-02T07:45:48.572Z,-0.22
2023-02-02T07:48:53.752Z,-0.09
2023-02-02T07:51:55.821Z,-0.07
2023-02-02T07:55:12.787Z,-0.15
2023-02-02T07:58:16.675Z,-0.11
2023-02-02T08:01:19.355Z,-0.09
2023-02-02T08:04:21.344Z,-0.13
2023-02-02T08:07:23.326Z,-0.13
2023-02-02T08:10:26.730Z,0.01
2023-02-02T08:13:28.530Z,-0.01
2023-02-02T08:16:31.741Z,-0.01
2023-02-02T08:19:34.855Z,-0.02
2023-02-02T08:22:36.973Z,-0.06
2023-02-02T08:25:40.746Z,-0.11
2023-02-02T08:28:46.290Z,0.06
2023-02-02T08:31:48.126Z,0.03
2023-02-02T08:34:50.026Z,-0.03
2023-02-02T08:37:51.805Z,-0.03
2023-02-02T08:40:55.617Z,0.01
2023-02-02T08:43:57.793Z,-0.04
2023-02-02T08:46:59.999Z,0.00
2023-02-02T08:50:02.060Z,0.04
2023-02-02T08:53:04.182Z,0.04
2023-02-02T08:56:11.672Z,-0.04
2023-02-02T08:59:13.887Z,-0.03
2023-02-02T09:02:16.283Z,0.10
2023-02-02T09:05:18.280Z,0.05
2023-02-02T09:08:20.515Z,0.11
2023-02-02T09:11:24.068Z,0.03
2023-02-02T09:14:25.983Z,0.10
2023-02-02T09:17:27.842Z,0.02
2023-02-02T09:20:29.632Z,0.11
2023-02-02T09:23:32.078Z,0.18
2023-02-02T09:26:35.377Z,0.21
2023-02-02T09:29:37.440Z,0.13
2023-02-02T09:32:40.030Z,0.22
2023-02-02T09:35:41.865Z,0.19
2023-02-02T09:38:44.394Z,0.17
2023-02-02T09:42:09.332Z,0.15
2023-02-02T09:45:20.640Z,0.10
2023-02-02T09:48:28.080Z,0.12
2023-02-02T09:51:37.696Z,0.20
2023-02-02T09:54:43.634Z,0.12
2023-02-02T09:57:51.094Z,0.22
2023-02-02T10:01:00.342Z,0.24
2023-02-02T10:04:06.988Z,0.18
2023-02-02T10:07:15.135Z,0.20
2023-02-02T10:10:29.678Z,0.32
2023-02-02T10:13:35.176Z,0.41
2023-02-02T10:16:39.803Z,0.35
2023-02-02T10:19:43.522Z,0.42
2023-02-02T10:22:47.007Z,0.36
2023-02-02T10:26:00.232Z,0.40
2023-02-02T10:29:21.134Z,0.36
2023-02-02T10:32:26.672Z,0.45
2023-02-02T10:35:38.432Z,0.27
2023-02-02T10:38:50.274Z,0.43
2023-02-02T10:42:00.137Z,0.43
2023-02-02T10:45:15.526Z,0.52
2023-02-02T10:48:20.530Z,0.50
2023-02-02T10:51:28.227Z,0.52
2023-02-02T10:54:55.526Z,0.52
2023-02-02T10:58:16.431Z,0.57
2023-02-02T11:01:20.094Z,0.58
2023-02-02T11:04:23.088Z,0.61
2023-02-02T11:07:24.947Z,0.53
2023-02-02T11:10:27.150Z,0.49
2023-02-02T11:13:32.214Z,0.53
2023-02-02T11:16:43.250Z,0.51
2023-02-02T11:19:46.076Z,0.56
2023-02-02T11:22:58.945Z,0.48
2023-02-02T11:26:02.551Z,0.58
2023-02-02T11:29:04.431Z,0.58
2023-02-02T11:32:27.239Z,0.58
2023-02-02T11:35:29.334Z,0.51
2023-02-02T11:38:31.933Z,0.52
2023-02-02T11:41:34.265Z,0.54
2023-02-02T11:44:39.712Z,0.55
2023-02-02T11:47:44.808Z,0.52
2023-02-02T11:50:48.684Z,0.50
2023-02-02T11:54:02.858Z,0.62
2023-02-02T11:57:09.096Z,0.59
2023-02-02T12:00:22.098Z,0.49
2023-02-02T12:03:35.403Z,0.48
2023-02-02T12:06:38.627Z,0.58
2023-02-02T12:09:40.705Z,0.67
2023-02-02T12:12:50.460Z,0.64
2023-02-02T12:16:06.583Z,0.74
2023-02-02T12:19:45.456Z,0.61
2023-02-02T12:23:22.799Z,0.52
2023-02-02T12:26:28.690Z,0.49
2023-02-02T12:30:10.845Z,0.48
2023-02-02T12:33:32.357Z,0.40
2023-02-02T12:36:47.676Z,0.41
2023-02-02T12:40:03.362Z,0.36
2023-02-02T12:43:15.234Z,0.36
2023-02-02T12:46:29.740Z,0.28
2023-02-02T12:50:02.884Z,0.32
2023-02-02T12:53:27.488Z,0.35
2023-02-02T12:56:43.167Z,0.33
2023-02-02T13:00:08.742Z,0.39
2023-02-02T13:03:23.467Z,0.28
2023-02-02T13:06:53.862Z,0.46
2023-02-02T13:10:09.041Z,0.41
2023-02-02T13:13:16.062Z,0.27
2023-02-02T13:16:18.080Z,0.42
2023-02-02T13:19:28.893Z,0.29
2023-02-02T13:22:34.569Z,0.41
2023-02-02T13:25:44.751Z,0.47
2023-02-02T13:28:52.143Z,0.39
2023-02-02T13:31:59.901Z,0.41
2023-02-02T13:35:04.900Z,0.45
2023-02-02T13:38:15.827Z,0.39
2023-02-02T13:41:23.200Z,0.45
2023-02-02T13:44:32.091Z,0.55
2023-02-02T13:47:42.081Z,0.57
2023-02-02T13:50:57.968Z,0.49
2023-02-02T13:54:45.929Z,0.57
2023-02-02T13:58:19.372Z,0.66
2023-02-02T14:01:22.863Z,0.60
2023-02-02T14:04:31.535Z,0.56
2023-02-02T14:07:42.016Z,0.60
2023-02-02T14:10:56.936Z,0.61
2023-02-02T14:14:08.773Z,0.59
2023-02-02T14:17:53.150Z,0.54
2023-02-02T14:20:55.216Z,0.45
2023-02-02T14:24:01.216Z,0.32
2023-02-02T14:27:24.467Z,0.23
2023-02-02T14:30:35.154Z,0.21
2023-02-02T14:33:40.569Z,0.27
2023-02-02T14:36:53.695Z,0.19
2023-02-02T14:40:02.556Z,0.15
2023-02-02T14:43:17.201Z,0.22
2023-02-02T14:46:33.224Z,0.25
2023-02-02T14:49:35.665Z,0.25
2023-02-02T14:52:37.473Z,0.18
2023-02-02T14:55:54.780Z,0.18
2023-02-02T14:59:00.470Z,0.29
2023-02-02T15:02:17.612Z,0.28
2023-02-02T15:05:37.015Z,0.23
2023-02-02T15:08:38.725Z,0.29
2023-02-02T15:12:13.743Z,0.27
2023-02-02T15:15:23.182Z,0.32
2023-02-02T15:18:32.793Z,0.23
2023-02-02T15:21:39.406Z,0.36
2023-02-02T15:24:45.295Z,0.29
2023-02-02T15:27:56.919Z,0.41
2023-02-02T15:31:05.817Z,0.41
2023-02-02T15:34:16.915Z,0.55
2023-02-02T15:37:22.320Z,0.56
2023-02-02T15:40:26.034Z,0.71
2023-02-02T15:43:28.129Z,0.66
2023-02-02T15:46:33.807Z,0.69
2023-02-02T15:49:37.165Z,0.72
2023-02-02T15:52:46.863Z,0.55
2023-02-02T15:55:48.834Z,0.53
2023-02-02T15:58:52.283Z,0.63
2023-02-02T16:02:04.684Z,0.72
2023-02-02T16:05:39.196Z,0.74
2023-02-02T16:08:42.119Z,0.74
2023-02-02T16:11:50.453Z,0.64
2023-02-02T16:14:53.507Z,0.56
2023-02-02T16:17:59.270Z,0.48
2023-02-02T16:21:09.577Z,0.50
2023-02-02T16:24:16.819Z,0.48
2023-02-02T16:27:21.363Z,0.56
2023-02-02T16:30:26.506Z,0.53
2023-02-02T16:33:30.746Z,0.55
2023-02-02T16:36:33.833Z,0.28
2023-02-02T16:39:35.582Z,0.37
2023-02-02T16:42:37.335Z,0.33
2023-02-02T16:45:45.916Z,0.52
2023-02-02T16:48:57.157Z,0.28
2023-02-02T16:52:13.103Z,0.31
2023-02-02T16:55:17.355Z,0.33
2023-02-02T16:58:22.778Z,0.28
2023-02-02T17:01:35.954Z,0.14
2023-02-02T17:04:37.785Z,0.18
2023-02-02T17:07:47.448Z,0.24
2023-02-02T17:11:02.429Z,0.39
2023-02-02T17:14:19.711Z,0.28
2023-02-02T17:17:21.869Z,0.35
2023-02-02T17:20:24.244Z,0.41
2023-02-02T17:23:29.308Z,0.37
2023-02-02T17:26:31.418Z,0.24
2023-02-02T17:29:33.264Z,0.33
2023-02-02T17:32:35.236Z,0.25
2023-02-02T17:35:53.256Z,0.23
2023-02-02T17:38:58.105Z,0.36
2023-02-02T17:42:00.253Z,0.24
2023-02-02T17:45:02.450Z,0.18
2023-02-02T17:48:05.293Z,0.20
2023-02-02T17:51:14.171Z,0.08
2023-02-02T17:54:18.081Z,0.02
2023-02-02T17:57:20.516Z,0.17
2023-02-02T18:00:25.103Z,0.08
2023-02-02T18:03:29.182Z,0.12
2023-02-02T18:06:31.632Z,0.09
2023-02-02T18:09:35.753Z,0.05
2023-02-02T18:12:38.221Z,0.05
2023-02-02T18:15:40.064Z,0.12
2023-02-02T18:18:41.855Z,0.13
2023-02-02T18:21:44.029Z,0.11
2023-02-02T18:24:48.139Z,0.14
2023-02-02T18:27:50.742Z,0.07
2023-02-02T18:30:53.239Z,0.08
2023-02-02T18:33:55.828Z,0.02
2023-02-02T18:36:58.729Z,0.14
2023-02-02T18:40:02.785Z,0.01
2023-02-02T18:43:05.346Z,0.05
2023-02-02T18:46:08.846Z,0.11
2023-02-02T18:49:11.563Z,0.03
2023-02-02T18:52:13.898Z,0.04
2023-02-02T18:55:17.959Z,0.08
2023-02-02T18:58:20.406Z,0.18
2023-02-02T19:01:22.960Z,0.16
2023-02-02T19:04:25.429Z,0.19
2023-02-02T19:07:27.522Z,0.15
2023-02-02T19:10:31.503Z,0.14
2023-02-02T19:13:34.174Z,0.07
2023-02-02T19:16:36.325Z,0.10
2023-02-02T19:19:40.464Z,0.02
2023-02-02T19:22:42.858Z,0.10
2023-02-02T19:25:51.248Z,0.19
2023-02-02T19:29:00.343Z,0.21
2023-02-02T19:32:09.401Z,0.06
2023-02-02T19:35:15.535Z,0.11
2023-02-02T19:38:18.075Z,0.13
2023-02-02T19:41:26.116Z,0.24
2023-02-02T19:44:31.486Z,0.29
2023-02-02T19:47:33.942Z,0.35
2023-02-02T19:50:38.721Z,0.36
2023-02-02T19:53:40.460Z,0.34
2023-02-02T19:56:43.906Z,0.35
2023-02-02T19:59:48.408Z,0.37
2023-02-02T20:03:10.708Z,0.39
2023-02-02T20:06:21.641Z,0.37
2023-02-02T20:09:23.971Z,0.41
2023-02-02T20:12:30.918Z,0.48
2023-02-02T20:15:35.363Z,0.46
2023-02-02T20:18:43.621Z,0.48
2023-02-02T20:21:48.087Z,0.41
2023-02-02T20:24:50.882Z,0.36
2023-02-02T20:27:54.549Z,0.41
2023-02-02T20:30:57.140Z,0.42
2023-02-02T20:33:59.666Z,0.49
2023-02-02T20:37:13.841Z,0.45
2023-02-02T20:40:24.735Z,0.40
2023-02-02T20:43:28.761Z,0.36
2023-02-02T20:46:32.386Z,0.40
2023-02-02T20:49:37.077Z,0.33
2023-02-02T20:52:39.315Z,0.40
2023-02-02T20:55:41.418Z,0.45
2023-02-02T20:58:45.196Z,0.50
2023-02-02T21:01:47.740Z,0.52
2023-02-02T21:04:50.511Z,0.55
2023-02-02T21:07:52.561Z,0.60
2023-02-02T21:10:54.328Z,0.61
2023-02-02T21:13:57.501Z,0.63
2023-02-02T21:17:12.916Z,0.64
2023-02-02T21:20:16.739Z,0.69
2023-02-02T21:23:19.044Z,0.69
2023-02-02T21:26:23.208Z,0.62
2023-02-02T21:29:26.404Z,0.66
2023-02-02T21:32:28.139Z,0.60
2023-02-02T21:35:29.836Z,0.57
2023-02-02T21:38:31.575Z,0.59
2023-02-02T21:41:33.750Z,0.62
2023-02-02T21:44:39.170Z,0.55
2023-02-02T21:47:50.109Z,0.57
2023-02-02T21:50:51.877Z,0.56
2023-02-02T21:53:53.577Z,0.53
2023-02-02T21:56:55.721Z,0.55
2023-02-02T21:59:58.988Z,0.44
2023-02-02T22:03:00.959Z,0.43
2023-02-02T22:06:24.279Z,0.45
2023-02-02T22:09:28.280Z,0.52
2023-02-02T22:12:30.192Z,0.58
2023-02-02T22:15:33.501Z,0.58
2023-02-02T22:18:35.782Z,0.55
2023-02-02T22:21:37.519Z,0.64
2023-02-02T22:24:39.613Z,0.59
2023-02-02T22:27:45.971Z,0.49
2023-02-02T22:30:50.565Z,0.51
2023-02-02T22:33:52.326Z,0.56
2023-02-02T22:36:54.088Z,0.56
2023-02-02T22:39:55.834Z,0.57
2023-02-02T22:42:58.878Z,0.58
2023-02-02T22:46:02.030Z,0.62
2023-02-02T22:49:03.766Z,0.61
2023-02-02T22:52:05.510Z,0.57
2023-02-02T22:55:07.619Z,0.58
2023-02-02T23:13:28.196Z,0.53
2023-02-02T23:16:30.557Z,0.58
2023-02-02T23:19:34.617Z,0.60
2023-02-02T23:22:36.681Z,0.64
2023-02-02T23:28:59.038Z,0.66
2023-02-02T23:32:00.880Z,0.63
2023-02-02T23:35:03.292Z,0.65
2023-02-02T23:38:06.327Z,0.69
2023-02-02T23:41:10.416Z,0.74
2023-02-02T23:44:13.577Z,0.86
2023-02-02T23:47:15.976Z,0.89
2023-02-02T23:50:18.198Z,0.91
2023-02-02T23:53:20.497Z,0.89
2023-02-02T23:56:22.692Z,1.02
2023-02-02T23:59:26.124Z,0.92
